createdAt,value
2023-03-06T00:01:08.396Z,100.00
2023-03-06T00:03:11.188Z,100.00
2023-03-06T00:05:15.105Z,100.00
2023-03-06T00:07:17.776Z,100.00
2023-03-06T00:09:20.361Z,100.00
2023-03-06T00:11:22.972Z,100.00
2023-03-06T00:13:26.923Z,100.00
2023-03-06T00:15:30.008Z,100.00
2023-03-06T00:17:32.673Z,100.00
2023-03-06T00:19:35.238Z,100.00
2023-03-06T00:21:40.203Z,100.00
2023-03-06T00:23:42.783Z,100.00
2023-03-06T00:25:46.256Z,100.00
2023-03-06T00:27:50.162Z,100.00
2023-03-06T00:29:57.132Z,100.00
2023-03-06T00:31:59.786Z,100.00
2023-03-06T00:34:03.259Z,100.00
2023-03-06T00:36:06.775Z,100.00
2023-03-06T00:38:12.234Z,100.00
2023-03-06T00:40:20.557Z,100.00
2023-03-06T00:42:23.340Z,100.00
2023-03-06T00:44:25.966Z,100.00
2023-03-06T00:46:28.635Z,100.00
2023-03-06T00:48:34.267Z,100.00
2023-03-06T00:50:36.920Z,100.00
2023-03-06T00:52:39.909Z,100.00
2023-03-06T00:54:42.977Z,100.00
2023-03-06T00:56:45.573Z,99.85
2023-03-06T00:58:48.179Z,99.52
2023-03-06T01:00:50.870Z,99.75
2023-03-06T01:02:53.908Z,98.79
2023-03-06T01:04:57.682Z,98.71
2023-03-06T01:07:00.352Z,98.03
2023-03-06T01:09:02.975Z,97.36
2023-03-06T01:11:05.760Z,97.54
2023-03-06T01:13:08.421Z,97.31
2023-03-06T01:15:12.839Z,97.08
2023-03-06T01:17:16.201Z,97.18
2023-03-06T01:19:19.073Z,97.33
2023-03-06T01:21:21.658Z,97.23
2023-03-06T01:23:24.273Z,97.65
2023-03-06T01:25:27.130Z,97.12
2023-03-06T01:27:29.782Z,96.96
2023-03-06T01:29:32.394Z,96.43
2023-03-06T01:31:35.049Z,95.70
2023-03-06T01:33:38.170Z,95.23
2023-03-06T01:35:41.104Z,95.01
2023-03-06T01:37:43.786Z,94.75
2023-03-06T01:39:46.638Z,94.61
2023-03-06T01:41:49.329Z,95.00
2023-03-06T01:43:52.214Z,94.99
2023-03-06T01:46:25.877Z,94.79
2023-03-06T01:48:28.787Z,95.32
2023-03-06T01:50:31.541Z,94.90
2023-03-06T01:52:38.926Z,95.04
2023-03-06T01:55:05.786Z,94.44
2023-03-06T01:57:25.854Z,94.77
2023-03-06T01:59:29.548Z,93.94
2023-03-06T02:01:33.456Z,93.66
2023-03-06T02:03:36.463Z,93.69
2023-03-06T02:05:41.813Z,93.20
2023-03-06T02:07:46.334Z,93.83
2023-03-06T02:09:48.942Z,94.11
2023-03-06T02:11:51.579Z,94.53
2023-03-06T02:13:55.391Z,94.31
2023-03-06T02:15:58.983Z,94.26
2023-03-06T02:18:02.266Z,93.92
2023-03-06T02:20:31.895Z,93.96
2023-03-06T02:22:45.675Z,93.87
2023-03-06T02:24:58.538Z,93.46
2023-03-06T02:27:03.946Z,93.76
2023-03-06T02:29:08.356Z,93.40
2023-03-06T02:31:23.167Z,93.67
2023-03-06T02:33:29.325Z,94.34
2023-03-06T02:35:35.135Z,94.76
2023-03-06T02:37:37.908Z,94.39
2023-03-06T02:39:44.518Z,94.56
2023-03-06T02:41:47.314Z,94.36
2023-03-06T02:43:52.213Z,94.43
2023-03-06T02:45:55.029Z,94.78
2023-03-06T02:47:57.959Z,94.85
2023-03-06T02:50:00.583Z,94.98
2023-03-06T02:52:03.197Z,94.55
2023-03-06T02:54:05.905Z,94.87
2023-03-06T02:56:08.769Z,94.56
2023-03-06T02:58:11.400Z,94.24
2023-03-06T03:00:15.002Z,93.81
2023-03-06T03:02:17.607Z,93.61
2023-03-06T03:04:20.339Z,93.11
2023-03-06T03:06:23.031Z,93.07
2023-03-06T03:08:25.807Z,92.91
2023-03-06T03:10:28.656Z,92.42
2023-03-06T03:12:31.994Z,91.86
2023-03-06T03:14:34.845Z,91.83
2023-03-06T03:16:39.193Z,92.08
2023-03-06T03:18:44.702Z,91.24
2023-03-06T03:20:47.314Z,91.97
2023-03-06T03:22:52.176Z,91.32
2023-03-06T03:24:54.964Z,91.71
2023-03-06T03:26:57.604Z,93.18
2023-03-06T03:29:00.200Z,93.79
2023-03-06T03:31:05.111Z,94.05
2023-03-06T03:33:08.344Z,94.34
2023-03-06T03:35:11.576Z,94.99
2023-03-06T03:37:14.193Z,95.45
2023-03-06T03:39:17.017Z,95.36
2023-03-06T03:41:19.826Z,95.55
2023-03-06T03:43:22.530Z,95.50
2023-03-06T03:45:25.178Z,95.39
2023-03-06T03:47:27.842Z,95.78
2023-03-06T03:49:30.503Z,95.41
2023-03-06T03:51:33.218Z,96.20
2023-03-06T03:53:36.099Z,95.91
2023-03-06T03:55:38.782Z,96.25
2023-03-06T03:57:41.566Z,96.39
2023-03-06T03:59:44.273Z,96.69
2023-03-06T04:01:46.957Z,96.48
2023-03-06T04:03:49.591Z,96.73
2023-03-06T04:05:54.667Z,96.43
2023-03-06T04:07:57.465Z,96.53
2023-03-06T04:10:00.051Z,96.35
2023-03-06T04:12:02.600Z,96.94
2023-03-06T04:14:05.289Z,96.02
2023-03-06T04:16:08.224Z,96.44
2023-03-06T04:18:11.127Z,96.52
2023-03-06T04:20:14.688Z,96.12
2023-03-06T04:22:17.613Z,95.72
2023-03-06T04:24:20.178Z,95.45
2023-03-06T04:26:22.840Z,95.23
2023-03-06T04:28:25.651Z,95.70
2023-03-06T04:30:28.348Z,95.57
2023-03-06T04:32:30.973Z,95.55
2023-03-06T04:34:33.643Z,96.15
2023-03-06T04:36:36.913Z,95.79
2023-03-06T04:38:39.658Z,96.04
2023-03-06T04:40:44.558Z,95.64
2023-03-06T04:42:48.085Z,95.30
2023-03-06T04:44:50.854Z,95.54
2023-03-06T04:46:53.536Z,95.22
2023-03-06T04:48:56.167Z,95.50
2023-03-06T04:50:58.805Z,94.03
2023-03-06T04:53:02.663Z,94.62
2023-03-06T04:55:08.827Z,94.24
2023-03-06T04:57:11.678Z,94.67
2023-03-06T04:59:14.405Z,94.14
2023-03-06T05:01:17.050Z,94.14
2023-03-06T05:03:19.691Z,94.86
2023-03-06T05:05:22.380Z,94.27
2023-03-06T05:07:24.988Z,95.31
2023-03-06T05:09:27.644Z,94.89
2023-03-06T05:11:30.325Z,94.33
2023-03-06T05:13:33.181Z,94.28
2023-03-06T05:15:35.762Z,94.40
2023-03-06T05:17:38.704Z,93.33
2023-03-06T05:19:41.318Z,93.71
2023-03-06T05:21:43.925Z,92.72
2023-03-06T05:23:47.733Z,93.57
2023-03-06T05:25:50.319Z,93.20
2023-03-06T05:27:53.031Z,92.66
2023-03-06T05:29:55.869Z,92.62
2023-03-06T05:31:59.164Z,90.90
2023-03-06T05:34:01.870Z,91.78
2023-03-06T05:36:04.987Z,92.08
2023-03-06T05:38:07.630Z,91.52
2023-03-06T05:40:13.082Z,91.35
2023-03-06T05:42:16.059Z,89.89
2023-03-06T05:44:24.063Z,91.40
2023-03-06T05:46:26.786Z,90.98
2023-03-06T05:48:30.178Z,89.56
2023-03-06T05:50:32.879Z,89.81
2023-03-06T05:52:35.497Z,90.06
2023-03-06T05:54:38.087Z,89.19
2023-03-06T05:56:42.761Z,89.48
2023-03-06T05:58:46.697Z,89.14
2023-03-06T06:00:49.657Z,89.58
2023-03-06T06:02:53.958Z,89.29
2023-03-06T06:04:56.524Z,89.79
2023-03-06T06:07:00.715Z,89.67
2023-03-06T06:09:05.701Z,89.47
2023-03-06T06:11:10.164Z,89.58
2023-03-06T06:13:12.857Z,89.72
2023-03-06T06:15:15.644Z,90.04
2023-03-06T06:17:18.800Z,90.25
2023-03-06T06:19:22.245Z,90.55
2023-03-06T06:21:25.058Z,90.82
2023-03-06T06:23:27.731Z,90.80
2023-03-06T06:25:30.406Z,91.80
2023-03-06T06:27:33.159Z,91.90
2023-03-06T06:29:36.273Z,92.64
2023-03-06T06:31:40.575Z,92.56
2023-03-06T06:33:43.472Z,93.24
2023-03-06T06:35:46.715Z,92.83
2023-03-06T06:37:49.801Z,93.47
2023-03-06T06:39:52.475Z,92.96
2023-03-06T06:42:09.971Z,93.46
2023-03-06T06:44:21.841Z,93.51
2023-03-06T06:47:10.782Z,94.06
2023-03-06T06:48:52.794Z,93.98
2023-03-06T06:50:57.024Z,93.20
2023-03-06T06:53:00.168Z,93.41
2023-03-06T06:55:03.661Z,93.53
2023-03-06T06:57:06.840Z,92.00
2023-03-06T06:59:16.544Z,93.57
2023-03-06T07:01:20.440Z,93.57
2023-03-06T07:03:23.254Z,94.30
2023-03-06T07:05:25.874Z,94.39
2023-03-06T07:07:28.708Z,93.70
2023-03-06T07:09:31.542Z,93.13
2023-03-06T07:11:34.235Z,90.66
2023-03-06T07:13:36.825Z,90.01
2023-03-06T07:15:39.472Z,89.45
2023-03-06T07:17:42.264Z,87.78
2023-03-06T07:19:44.945Z,88.11
2023-03-06T07:21:50.211Z,85.66
2023-03-06T07:23:52.948Z,84.27
2023-03-06T07:25:55.693Z,84.39
2023-03-06T07:27:58.400Z,84.75
2023-03-06T07:30:01.585Z,83.27
2023-03-06T07:32:06.524Z,83.47
2023-03-06T07:34:13.221Z,83.08
2023-03-06T07:36:16.116Z,83.16
2023-03-06T07:38:18.786Z,82.03
2023-03-06T07:40:21.700Z,82.39
2023-03-06T07:42:24.277Z,81.49
2023-03-06T07:44:27.497Z,80.89
2023-03-06T07:46:30.206Z,78.39
2023-03-06T07:48:33.332Z,78.48
2023-03-06T07:50:36.062Z,78.59
2023-03-06T07:52:38.963Z,76.80
2023-03-06T07:54:41.686Z,76.71
2023-03-06T07:56:44.288Z,75.83
2023-03-06T07:58:47.966Z,74.61
2023-03-06T08:00:50.696Z,72.14
2023-03-06T08:02:53.356Z,72.43
2023-03-06T08:04:56.700Z,74.11
2023-03-06T08:07:00.256Z,74.10
2023-03-06T08:09:03.459Z,74.81
2023-03-06T08:11:07.376Z,74.22
2023-03-06T08:13:10.005Z,75.03
2023-03-06T08:15:13.530Z,73.70
2023-03-06T08:17:16.161Z,75.29
2023-03-06T08:19:18.773Z,73.06
2023-03-06T08:21:26.638Z,72.08
2023-03-06T08:23:29.411Z,72.91
2023-03-06T08:25:31.979Z,71.67
2023-03-06T08:27:35.194Z,71.16
2023-03-06T08:29:37.830Z,71.54
2023-03-06T08:31:42.842Z,69.04
2023-03-06T08:33:45.477Z,71.59
2023-03-06T08:35:48.189Z,71.89
2023-03-06T08:37:50.827Z,69.30
2023-03-06T08:39:53.467Z,71.30
2023-03-06T08:41:56.083Z,72.55
2023-03-06T08:43:58.994Z,72.34
2023-03-06T08:46:02.515Z,72.18
2023-03-06T08:48:05.408Z,72.26
2023-03-06T08:50:08.486Z,72.72
2023-03-06T08:52:11.344Z,72.46
2023-03-06T08:54:14.005Z,71.81
2023-03-06T08:56:35.067Z,67.28
2023-03-06T08:58:37.612Z,73.28
2023-03-06T09:00:40.422Z,72.31
2023-03-06T09:02:43.125Z,72.30
2023-03-06T09:04:45.694Z,72.86
2023-03-06T09:06:48.311Z,71.85
2023-03-06T09:08:52.602Z,72.21
2023-03-06T09:10:55.265Z,70.90
2023-03-06T09:12:57.897Z,68.96
2023-03-06T09:15:04.517Z,69.29
2023-03-06T09:17:07.292Z,71.95
2023-03-06T09:19:10.867Z,69.45
2023-03-06T09:21:13.475Z,70.52
2023-03-06T09:23:16.072Z,72.19
2023-03-06T09:25:20.587Z,70.94
2023-03-06T09:27:23.276Z,70.29
2023-03-06T09:29:25.859Z,70.49
2023-03-06T09:31:28.613Z,68.83
2023-03-06T09:33:31.776Z,70.60
2023-03-06T09:35:34.494Z,69.85
2023-03-06T09:37:37.171Z,70.18
2023-03-06T09:39:39.831Z,67.64
2023-03-06T09:41:42.728Z,71.01
2023-03-06T09:43:48.348Z,70.22
2023-03-06T09:45:51.152Z,70.94
2023-03-06T09:48:11.050Z,66.30
2023-03-06T09:50:36.020Z,64.91
2023-03-06T09:53:03.524Z,65.71
2023-03-06T09:55:30.319Z,68.08
2023-03-06T09:57:36.904Z,69.48
2023-03-06T09:59:50.562Z,66.23
2023-03-06T10:02:18.258Z,59.81
2023-03-06T10:04:44.119Z,63.96
2023-03-06T10:06:50.457Z,68.04
2023-03-06T10:09:00.306Z,67.37
2023-03-06T10:11:08.841Z,65.58
2023-03-06T10:13:19.665Z,65.86
2023-03-06T10:15:37.495Z,62.22
2023-03-06T10:17:42.347Z,67.85
2023-03-06T10:19:47.793Z,66.78
2023-03-06T10:22:02.446Z,66.16
2023-03-06T10:24:08.180Z,64.69
2023-03-06T10:26:19.979Z,63.80
2023-03-06T10:28:46.987Z,59.94
2023-03-06T10:30:49.630Z,67.56
2023-03-06T10:33:07.681Z,63.24
2023-03-06T10:35:19.045Z,66.20
2023-03-06T10:37:23.160Z,65.79
2023-03-06T10:39:25.763Z,66.76
2023-03-06T10:41:35.474Z,68.12
2023-03-06T10:43:43.360Z,67.19
2023-03-06T10:45:50.565Z,66.09
2023-03-06T10:48:11.114Z,62.43
2023-03-06T10:50:25.656Z,62.68
2023-03-06T10:52:33.987Z,60.94
2023-03-06T10:54:39.320Z,65.72
2023-03-06T10:56:43.845Z,65.74
2023-03-06T10:58:46.378Z,65.01
2023-03-06T11:01:19.575Z,62.03
2023-03-06T11:03:25.600Z,65.99
2023-03-06T11:05:28.258Z,64.54
2023-03-06T11:07:33.290Z,65.84
2023-03-06T11:09:36.689Z,67.24
2023-03-06T11:11:39.298Z,65.77
2023-03-06T11:13:44.171Z,63.79
2023-03-06T11:16:05.108Z,59.15
2023-03-06T11:18:10.438Z,61.49
2023-03-06T11:20:22.157Z,57.80
2023-03-06T11:22:25.129Z,60.47
2023-03-06T11:24:33.921Z,60.53
2023-03-06T11:26:44.454Z,61.15
2023-03-06T11:28:55.276Z,60.19
2023-03-06T11:31:18.881Z,56.62
2023-03-06T11:33:27.575Z,61.53
2023-03-06T11:35:47.276Z,59.54
2023-03-06T11:37:54.141Z,62.42
2023-03-06T11:40:39.437Z,58.34
2023-03-06T11:43:27.100Z,59.93
2023-03-06T11:45:37.470Z,62.98
2023-03-06T11:48:15.693Z,56.49
2023-03-06T11:50:36.823Z,64.68
2023-03-06T11:52:43.193Z,62.42
2023-03-06T11:54:49.844Z,60.98
2023-03-06T11:57:18.004Z,56.69
2023-03-06T11:59:51.565Z,56.12
2023-03-06T12:02:12.737Z,57.27
2023-03-06T12:04:39.451Z,59.31
2023-03-06T12:07:10.684Z,51.71
2023-03-06T12:09:25.398Z,56.89
2023-03-06T12:11:59.769Z,53.63
2023-03-06T12:14:20.856Z,59.55
2023-03-06T12:16:36.528Z,52.98
2023-03-06T12:19:09.829Z,52.92
2023-03-06T12:21:54.651Z,52.20
2023-03-06T12:24:42.483Z,53.86
2023-03-06T12:26:50.792Z,60.78
2023-03-06T12:29:33.678Z,54.88
2023-03-06T12:31:54.900Z,57.81
2023-03-06T12:34:15.429Z,58.18
2023-03-06T12:36:41.634Z,57.93
2023-03-06T12:38:51.640Z,58.79
2023-03-06T12:40:59.923Z,57.48
2023-03-06T12:43:28.712Z,55.39
2023-03-06T12:45:37.184Z,56.85
2023-03-06T12:47:46.713Z,56.49
2023-03-06T12:49:59.482Z,59.10
2023-03-06T12:52:05.000Z,59.79
2023-03-06T12:54:11.616Z,60.46
2023-03-06T12:56:17.460Z,59.84
2023-03-06T12:58:28.845Z,56.72
2023-03-06T13:00:34.667Z,56.46
2023-03-06T13:03:04.489Z,56.19
2023-03-06T13:05:40.941Z,52.37
2023-03-06T13:08:13.850Z,50.60
2023-03-06T13:10:34.524Z,54.28
2023-03-06T13:12:56.933Z,54.23
2023-03-06T13:15:01.532Z,61.21
2023-03-06T13:17:34.365Z,57.71
2023-03-06T13:19:37.016Z,64.52
2023-03-06T13:21:42.420Z,62.91
2023-03-06T13:23:51.463Z,62.65
2023-03-06T13:25:54.162Z,65.04
2023-03-06T13:27:56.684Z,64.30
2023-03-06T13:30:20.217Z,61.30
2023-03-06T13:32:31.256Z,62.11
2023-03-06T13:34:37.905Z,65.14
2023-03-06T13:36:40.663Z,66.91
2023-03-06T13:38:43.238Z,66.32
2023-03-06T13:40:46.009Z,66.77
2023-03-06T13:43:06.932Z,58.92
2023-03-06T13:45:32.463Z,61.51
2023-03-06T13:48:10.681Z,68.87
2023-03-06T13:50:33.087Z,68.91
2023-03-06T13:53:00.914Z,65.56
2023-03-06T13:55:26.500Z,70.98
2023-03-06T13:57:50.676Z,67.96
2023-03-06T14:00:09.273Z,69.69
2023-03-06T14:02:31.292Z,73.91
2023-03-06T14:05:04.977Z,72.73
2023-03-06T14:07:07.523Z,73.75
2023-03-06T14:09:28.209Z,71.31
2023-03-06T14:11:32.559Z,75.77
2023-03-06T14:13:47.152Z,75.90
2023-03-06T14:15:53.364Z,76.14
2023-03-06T14:18:13.901Z,73.36
2023-03-06T14:20:20.293Z,76.39
2023-03-06T14:22:24.809Z,76.36
2023-03-06T14:24:37.356Z,72.66
2023-03-06T14:26:44.814Z,76.36
2023-03-06T14:28:53.436Z,72.36
2023-03-06T14:30:58.849Z,76.18
2023-03-06T14:33:11.489Z,74.63
2023-03-06T14:35:31.754Z,73.04
2023-03-06T14:37:37.803Z,76.66
2023-03-06T14:39:43.793Z,74.94
2023-03-06T14:41:46.565Z,76.70
2023-03-06T14:43:49.687Z,76.02
2023-03-06T14:46:06.812Z,76.34
2023-03-06T14:48:15.184Z,78.23
2023-03-06T14:50:28.970Z,78.18
2023-03-06T14:52:32.201Z,78.90
2023-03-06T14:54:39.333Z,79.54
2023-03-06T14:56:44.232Z,77.51
2023-03-06T14:58:52.650Z,77.30
2023-03-06T15:00:58.881Z,78.05
2023-03-06T15:03:05.939Z,77.94
2023-03-06T15:05:27.890Z,76.71
2023-03-06T15:07:32.751Z,79.19
2023-03-06T15:09:37.770Z,79.40
2023-03-06T15:11:52.672Z,78.36
2023-03-06T15:14:05.588Z,80.39
2023-03-06T15:16:14.291Z,81.30
2023-03-06T15:18:50.056Z,80.85
2023-03-06T15:20:56.105Z,84.12
2023-03-06T15:22:58.686Z,85.17
2023-03-06T15:25:20.272Z,84.25
2023-03-06T15:27:30.535Z,83.40
2023-03-06T15:29:34.137Z,84.45
2023-03-06T15:31:46.947Z,83.80
2023-03-06T15:34:08.056Z,82.21
2023-03-06T15:36:27.799Z,82.20
2023-03-06T15:38:42.955Z,84.52
2023-03-06T15:40:55.503Z,85.86
2023-03-06T15:42:59.316Z,86.98
2023-03-06T15:45:16.022Z,87.71
2023-03-06T15:47:19.214Z,86.55
2023-03-06T15:49:21.829Z,88.09
2023-03-06T15:51:25.370Z,88.68
2023-03-06T15:53:28.662Z,88.95
2023-03-06T15:55:32.932Z,89.24
2023-03-06T15:57:35.619Z,88.78
2023-03-06T15:59:44.029Z,90.23
2023-03-06T16:01:46.892Z,90.60
2023-03-06T16:03:49.596Z,89.50
2023-03-06T16:05:52.415Z,89.01
2023-03-06T16:07:56.718Z,90.41
2023-03-06T16:09:59.317Z,89.40
2023-03-06T16:12:02.013Z,87.91
2023-03-06T16:14:04.993Z,89.86
2023-03-06T16:16:07.608Z,89.15
2023-03-06T16:18:12.509Z,88.09
2023-03-06T16:20:22.759Z,88.17
2023-03-06T16:22:25.387Z,87.29
2023-03-06T16:24:27.983Z,88.38
2023-03-06T16:26:35.874Z,88.22
2023-03-06T16:28:41.423Z,88.72
2023-03-06T16:30:45.503Z,88.55
2023-03-06T16:32:48.229Z,88.07
2023-03-06T16:34:50.984Z,87.91
2023-03-06T16:36:53.713Z,87.78
2023-03-06T16:38:56.456Z,88.26
2023-03-06T16:40:59.171Z,87.85
2023-03-06T16:43:01.829Z,86.90
2023-03-06T16:45:04.648Z,88.06
2023-03-06T16:47:12.080Z,88.54
2023-03-06T16:49:25.515Z,86.93
2023-03-06T16:51:28.151Z,87.43
2023-03-06T16:53:30.806Z,87.77
2023-03-06T16:55:34.803Z,86.16
2023-03-06T16:57:37.607Z,87.91
2023-03-06T16:59:40.214Z,85.58
2023-03-06T17:01:43.395Z,86.61
2023-03-06T17:03:46.379Z,85.57
2023-03-06T17:05:48.979Z,87.15
2023-03-06T17:07:51.624Z,86.08
2023-03-06T17:09:54.217Z,85.62
2023-03-06T17:11:56.872Z,88.06
2023-03-06T17:13:59.805Z,85.70
2023-03-06T17:16:02.525Z,85.30
2023-03-06T17:18:05.408Z,86.52
2023-03-06T17:20:08.967Z,86.69
2023-03-06T17:22:11.801Z,85.20
2023-03-06T17:24:14.383Z,86.08
2023-03-06T17:26:19.008Z,85.24
2023-03-06T17:28:22.093Z,86.03
2023-03-06T17:30:24.858Z,85.25
2023-03-06T17:32:28.344Z,85.50
2023-03-06T17:34:31.004Z,84.79
2023-03-06T17:36:34.070Z,85.95
2023-03-06T17:38:36.843Z,86.37
2023-03-06T17:40:39.498Z,85.76
2023-03-06T17:42:42.170Z,86.62
2023-03-06T17:44:44.749Z,86.36
2023-03-06T17:46:47.369Z,85.78
2023-03-06T17:48:50.424Z,85.28
2023-03-06T17:50:56.881Z,84.67
2023-03-06T17:53:00.097Z,86.40
2023-03-06T17:55:02.714Z,86.16
2023-03-06T17:57:06.462Z,85.15
2023-03-06T17:59:09.600Z,86.25
2023-03-06T18:01:23.497Z,87.25
2023-03-06T18:03:26.222Z,88.23
2023-03-06T18:05:28.821Z,88.06
2023-03-06T18:07:31.466Z,88.42
2023-03-06T18:09:35.162Z,88.42
2023-03-06T18:11:37.827Z,88.98
2023-03-06T18:13:43.538Z,89.33
2023-03-06T18:15:46.147Z,90.11
2023-03-06T18:17:49.003Z,90.83
2023-03-06T18:19:52.091Z,90.18
2023-03-06T18:21:54.696Z,91.19
2023-03-06T18:24:00.279Z,92.03
2023-03-06T18:26:16.102Z,92.09
2023-03-06T18:28:19.731Z,92.17
2023-03-06T18:30:22.463Z,93.29
2023-03-06T18:32:25.169Z,93.47
2023-03-06T18:34:27.889Z,93.73
2023-03-06T18:36:32.238Z,94.14
2023-03-06T18:38:35.361Z,95.61
2023-03-06T18:40:37.951Z,94.52
2023-03-06T18:42:40.547Z,94.47
2023-03-06T18:44:44.258Z,94.92
2023-03-06T18:46:46.917Z,95.94
2023-03-06T18:48:49.876Z,95.66
2023-03-06T18:50:52.789Z,96.13
2023-03-06T18:52:56.457Z,96.58
2023-03-06T18:55:00.084Z,96.60
2023-03-06T18:57:02.872Z,97.09
2023-03-06T18:59:07.331Z,97.18
2023-03-06T19:01:10.039Z,96.77
2023-03-06T19:03:12.826Z,96.60
2023-03-06T19:05:15.594Z,96.78
2023-03-06T19:07:19.092Z,97.85
2023-03-06T19:09:22.545Z,97.97
2023-03-06T19:11:26.915Z,98.67
2023-03-06T19:13:29.856Z,98.29
2023-03-06T19:15:35.052Z,97.36
2023-03-06T19:17:38.288Z,96.86
2023-03-06T19:19:41.010Z,97.71
2023-03-06T19:21:43.632Z,97.37
2023-03-06T19:23:47.947Z,97.78
2023-03-06T19:25:57.822Z,97.63
2023-03-06T19:28:00.833Z,97.82
2023-03-06T19:30:05.236Z,98.64
2023-03-06T19:32:08.177Z,99.34
2023-03-06T19:34:11.157Z,98.83
2023-03-06T19:36:15.248Z,99.14
2023-03-06T19:38:17.897Z,97.81
2023-03-06T19:40:20.659Z,97.63
2023-03-06T19:42:23.236Z,98.09
2023-03-06T19:44:25.977Z,97.88
2023-03-06T19:46:28.592Z,97.81
2023-03-06T19:48:31.241Z,98.05
2023-03-06T19:50:34.761Z,98.54
2023-03-06T19:52:39.150Z,98.45
2023-03-06T19:54:41.814Z,98.68
2023-03-06T19:56:44.545Z,98.64
2023-03-06T19:58:47.188Z,98.45
2023-03-06T20:00:49.816Z,97.86
2023-03-06T20:02:52.471Z,98.12
2023-03-06T20:04:55.314Z,97.82
2023-03-06T20:06:58.480Z,98.06
2023-03-06T20:09:04.237Z,98.20
2023-03-06T20:11:06.991Z,98.33
2023-03-06T20:13:10.097Z,98.18
2023-03-06T20:15:13.284Z,99.04
2023-03-06T20:17:15.928Z,99.13
2023-03-06T20:19:19.163Z,98.43
2023-03-06T20:21:23.493Z,98.75
2023-03-06T20:23:26.383Z,98.57
2023-03-06T20:25:29.199Z,98.64
2023-03-06T20:27:31.756Z,99.29
2023-03-06T20:29:34.402Z,98.45
2023-03-06T20:31:37.517Z,98.61
2023-03-06T20:33:40.264Z,98.92
2023-03-06T20:35:43.339Z,98.68
2023-03-06T20:37:45.942Z,98.59
2023-03-06T20:39:48.774Z,98.83
2023-03-06T20:41:51.472Z,98.33
2023-03-06T20:43:54.175Z,99.17
2023-03-06T20:46:02.463Z,99.69
2023-03-06T20:48:05.198Z,99.46
2023-03-06T20:50:08.147Z,99.18
2023-03-06T20:52:10.804Z,98.58
2023-03-06T20:54:15.937Z,98.46
2023-03-06T20:56:21.606Z,98.48
2023-03-06T20:58:26.768Z,99.18
2023-03-06T21:00:29.441Z,99.38
2023-03-06T21:02:32.256Z,99.04
2023-03-06T21:04:35.002Z,99.04
2023-03-06T21:06:38.385Z,98.54
2023-03-06T21:08:41.173Z,99.53
2023-03-06T21:10:47.015Z,99.63
2023-03-06T21:12:49.610Z,99.59
2023-03-06T21:14:52.272Z,98.86
2023-03-06T21:16:54.921Z,98.50
2023-03-06T21:18:59.091Z,98.17
2023-03-06T21:21:13.617Z,98.32
2023-03-06T21:23:16.277Z,97.44
2023-03-06T21:25:18.966Z,98.14
2023-03-06T21:27:21.529Z,97.47
2023-03-06T21:29:24.096Z,97.72
2023-03-06T21:31:28.569Z,97.75
2023-03-06T21:33:31.268Z,98.47
2023-03-06T21:35:40.823Z,98.59
2023-03-06T21:37:43.425Z,99.02
2023-03-06T21:39:46.028Z,98.19
2023-03-06T21:41:48.713Z,98.00
2023-03-06T21:43:58.994Z,99.16
2023-03-06T21:46:01.644Z,98.73
2023-03-06T21:48:04.552Z,99.02
2023-03-06T21:50:10.112Z,99.63
2023-03-06T21:52:12.784Z,98.96
2023-03-06T21:54:15.383Z,98.81
2023-03-06T21:56:20.929Z,98.68
2023-03-06T21:58:23.588Z,98.11
2023-03-06T22:00:26.322Z,98.82
2023-03-06T22:02:29.739Z,99.11
2023-03-06T22:04:32.849Z,99.41
2023-03-06T22:06:35.560Z,100.00
2023-03-06T22:08:38.439Z,99.68
2023-03-06T22:10:42.096Z,99.60
2023-03-06T22:12:46.076Z,99.24
2023-03-06T22:14:48.718Z,99.79
2023-03-06T22:16:51.790Z,99.46
2023-03-06T22:18:54.430Z,99.74
2023-03-06T22:20:57.008Z,99.47
2023-03-06T22:22:59.622Z,99.26
2023-03-06T22:25:02.431Z,99.81
2023-03-06T22:27:05.977Z,99.39
2023-03-06T22:29:08.662Z,98.92
2023-03-06T22:31:15.014Z,99.17
2023-03-06T22:33:17.654Z,97.54
2023-03-06T22:35:20.294Z,98.68
2023-03-06T22:37:23.214Z,98.97
2023-03-06T22:39:26.196Z,98.84
2023-03-06T22:41:29.126Z,98.47
2023-03-06T22:43:32.530Z,98.77
2023-03-06T22:45:35.192Z,97.68
2023-03-06T22:47:38.204Z,97.66
2023-03-06T22:49:40.822Z,97.95
2023-03-06T22:51:43.938Z,98.50
2023-03-06T22:53:48.310Z,98.42
2023-03-06T22:55:50.850Z,98.92
2023-03-06T22:57:53.657Z,98.68
2023-03-06T22:59:56.255Z,97.77
2023-03-06T23:01:58.865Z,98.12
2023-03-06T23:04:03.520Z,98.75
2023-03-06T23:06:11.118Z,98.90
2023-03-06T23:08:13.748Z,98.00
2023-03-06T23:10:16.386Z,98.69
2023-03-06T23:12:19.023Z,99.20
2023-03-06T23:14:21.643Z,99.15
2023-03-06T23:16:25.080Z,98.58
2023-03-06T23:18:28.909Z,98.76
2023-03-06T23:20:31.731Z,99.01
2023-03-06T23:22:34.564Z,98.81
2023-03-06T23:24:37.212Z,98.51
2023-03-06T23:26:40.835Z,98.40
2023-03-06T23:28:43.677Z,98.88
2023-03-06T23:30:46.411Z,98.59
2023-03-06T23:32:49.060Z,98.89
2023-03-06T23:34:51.648Z,97.80
2023-03-06T23:36:54.217Z,97.11
2023-03-06T23:38:57.502Z,97.60
2023-03-06T23:41:04.825Z,96.60
2023-03-06T23:43:07.511Z,96.41
2023-03-06T23:45:10.869Z,97.25
2023-03-06T23:47:13.519Z,97.29
2023-03-06T23:49:16.160Z,96.99
2023-03-06T23:51:21.513Z,97.25
2023-03-06T23:53:24.944Z,96.27
2023-03-06T23:55:27.513Z,96.65
2023-03-06T23:57:30.943Z,96.03
2023-03-06T23:59:33.550Z,96.16
